»·PEaware :: SWA411 KLAS-KSAN

SWA411 :: KLAS-KSAN

FLIGHT INFORMATION

Flight Status: Arrived
Operator:
Southwest Airlines
More flights by this operator :: More flights under this callsign
Pilot: Jacob C. (16006)
Aircraft: BOEING 737-800
(B738)
More flights by this aircraft type
Origin: KLAS McCarran Intl
United States
Destination: KSAN San Diego Intl-Lindbergh
United States
More flights between these airports :: More routes between these airports
Route: BOACH7 LVELL LUCKI1
File this flight plan on PilotEdge
Remarks:
Altitude:
(Current/Filed)
28,000ft
Speed:
(Current/Filed)
430kts
Departed: 31-Jul-17 10:45 PM
Arrived: 31-Jul-17 11:28 PM
Distance/Time
Traveled:
225nm/0:43
Distance/Time
To Go:
Arrived

Flight Plot

Page will automatically refresh every two minutes.

Flight plan parsing failed; only flown route is shown


Map Options




Map Legend


Flown Route
Filed Route
Departure Airport
Arrival Airport
Navaid (VOR, NDB)
Fix

Horizontal Profiles

Position Reports

Time Latitude Longitude Heading Altitude Ground
Speed
31-Jul-17 22:21 36.081586 -115.148015 60 2119ft 0kts
31-Jul-17 22:22 36.081586 -115.148015 60 2119ft 0kts
31-Jul-17 22:23 36.081586 -115.148015 60 2119ft 0kts
31-Jul-17 22:24 36.081586 -115.148015 60 2119ft 0kts
31-Jul-17 22:25 36.081586 -115.148015 60 2119ft 0kts
31-Jul-17 22:26 36.081586 -115.148015 60 2119ft 0kts
31-Jul-17 22:27 36.081586 -115.148015 60 2119ft 0kts
31-Jul-17 22:28 36.081586 -115.148015 60 2119ft 0kts
31-Jul-17 22:29 36.081586 -115.148015 60 2119ft 0kts
31-Jul-17 22:30 36.081586 -115.148015 60 2119ft 0kts
31-Jul-17 22:31 36.081586 -115.148015 60 2119ft 0kts
31-Jul-17 22:32 36.081586 -115.148015 60 2119ft 0kts
31-Jul-17 22:33 36.081586 -115.148015 60 2119ft 0kts
31-Jul-17 22:34 36.081586 -115.148015 60 2119ft 0kts
31-Jul-17 22:35 36.081586 -115.148015 60 2119ft 0kts
31-Jul-17 22:36 36.081571 -115.148046 59 2119ft 2kts
31-Jul-17 22:37 36.081414 -115.148688 129 2119ft 2kts
31-Jul-17 22:38 36.081504 -115.148776 155 2119ft 0kts
31-Jul-17 22:39 36.081504 -115.148776 155 2119ft 0kts
31-Jul-17 22:40 36.081504 -115.148776 155 2119ft 0kts
31-Jul-17 22:41 36.079686 -115.147736 155 2119ft 19kts
31-Jul-17 22:42 36.078267 -115.142155 89 2119ft 15kts
31-Jul-17 22:43 36.078277 -115.135935 90 2119ft 21kts
31-Jul-17 22:44 36.078277 -115.127299 90 2119ft 28kts
31-Jul-17 22:45 36.077570 -115.121636 135 2119ft 0kts
31-Jul-17 22:46 36.077570 -115.121636 135 2119ft 0kts
31-Jul-17 22:47 36.077176 -115.121349 166 2119ft 14kts
31-Jul-17 22:48 36.076298 -115.158584 268 2913ft 197kts
31-Jul-17 22:49 36.068557 -115.240119 240 4644ft 285kts
31-Jul-17 22:50 36.002476 -115.287842 199 7046ft 290kts
31-Jul-17 22:51 35.923615 -115.306921 185 9005ft 296kts
31-Jul-17 22:52 35.838787 -115.312338 175 11261ft 333kts
31-Jul-17 22:53 35.746456 -115.302390 174 14192ft 343kts
31-Jul-17 22:54 35.650426 -115.296123 180 17199ft 356kts
31-Jul-17 22:55 35.550741 -115.299781 180 20332ft 368kts
31-Jul-17 22:56 35.447658 -115.303803 180 23255ft 378kts
31-Jul-17 22:57 35.341767 -115.307962 180 25868ft 389kts
31-Jul-17 22:58 35.239717 -115.311974 181 27930ft 392kts
31-Jul-17 22:59 35.128429 -115.316373 181 27940ft 418kts
31-Jul-17 23:00 35.009248 -115.321068 181 27899ft 442kts
31-Jul-17 23:01 34.885980 -115.325903 180 27889ft 450kts
31-Jul-17 23:02 34.762514 -115.340271 195 27898ft 454kts
31-Jul-17 23:03 34.644197 -115.390855 197 27935ft 454kts
31-Jul-17 23:04 34.526436 -115.442304 197 28043ft 453kts
31-Jul-17 23:05 34.409102 -115.493355 197 28047ft 453kts
31-Jul-17 23:06 34.294623 -115.553072 207 28057ft 457kts
31-Jul-17 23:07 34.184466 -115.626354 200 28059ft 454kts
31-Jul-17 23:08 34.073375 -115.679462 198 28042ft 453kts
31-Jul-17 23:09 33.956901 -115.734444 198 27870ft 453kts
31-Jul-17 23:10 33.841160 -115.790459 199 27791ft 454kts
31-Jul-17 23:11 33.724805 -115.846533 198 27801ft 454kts
31-Jul-17 23:12 33.612202 -115.899205 198 26752ft 419kts
31-Jul-17 23:13 33.513377 -115.961331 221 24511ft 405kts
31-Jul-17 23:14 33.446600 -116.063855 231 22466ft 393kts
31-Jul-17 23:15 33.384662 -116.169191 232 20677ft 386kts
31-Jul-17 23:16 33.314259 -116.258831 207 19552ft 369kts
31-Jul-17 23:17 33.224035 -116.315999 203 17870ft 368kts
31-Jul-17 23:18 33.135560 -116.368255 203 16357ft 356kts
31-Jul-17 23:19 33.048431 -116.419138 203 14799ft 350kts
31-Jul-17 23:20 32.967742 -116.482929 219 12828ft 351kts
31-Jul-17 23:21 32.895177 -116.555560 220 10890ft 335kts
31-Jul-17 23:22 32.827507 -116.623642 221 9376ft 302kts
31-Jul-17 23:23 32.770630 -116.688419 240 8094ft 279kts
31-Jul-17 23:24 32.734660 -116.761519 242 6903ft 269kts
31-Jul-17 23:25 32.702694 -116.834518 251 5673ft 234kts
31-Jul-17 23:26 32.680640 -116.905942 251 4355ft 231kts
31-Jul-17 23:27 32.678119 -116.975425 289 3641ft 218kts
31-Jul-17 23:28 32.697270 -117.044658 286 2402ft 233kts
31-Jul-17 23:29 32.713203 -117.106964 286 1745ft 177kts
31-Jul-17 23:30 32.726064 -117.158105 286 479ft 145kts
31-Jul-17 23:31 32.733743 -117.190421 281 21ft 30kts
31-Jul-17 23:32 32.733690 -117.194703 259 20ft 14kts
31-Jul-17 23:33 32.733145 -117.195660 228 20ft 0kts
31-Jul-17 23:34 32.733145 -117.195659 228 20ft 0kts
31-Jul-17 23:35 32.733145 -117.195659 228 20ft 0kts
31-Jul-17 23:36 32.733145 -117.195659 228 20ft 0kts
31-Jul-17 23:37 32.733145 -117.195659 228 20ft 0kts

Navigation Log

Ident Type
Flight plan parsing failed, navigation log unavailable